sensor_id;sensor_type;location;lat;lon;timestamp;pressure;altitude;pressure_sealevel;temperature;humidity
11327;BME280;5718;42.138;24.762;2023-07-13T00:00:07;99586.41;;;26.96;100.00
11327;BME280;5718;42.138;24.762;2023-07-13T00:02:35;99592.56;;;27.10;100.00
11327;BME280;5718;42.138;24.762;2023-07-13T00:05:02;99592.06;;;27.18;100.00
11327;BME280;5718;42.138;24.762;2023-07-13T00:07:30;99591.44;;;27.00;100.00
11327;BME280;5718;42.138;24.762;2023-07-13T00:09:57;99595.38;;;26.95;100.00
11327;BME280;5718;42.138;24.762;2023-07-13T00:12:27;99594.06;;;26.87;100.00
11327;BME280;5718;42.138;24.762;2023-07-13T00:14:55;99590.84;;;26.82;100.00
11327;BME280;5718;42.138;24.762;2023-07-13T00:17:24;99585.19;;;26.60;100.00
11327;BME280;5718;42.138;24.762;2023-07-13T00:19:51;99590.63;;;26.58;100.00
11327;BME280;5718;42.138;24.762;2023-07-13T00:22:18;99577.44;;;26.97;100.00
11327;BME280;5718;42.138;24.762;2023-07-13T00:24:45;99585.03;;;27.03;100.00
11327;BME280;5718;42.138;24.762;2023-07-13T00:27:12;99592.16;;;26.90;100.00
11327;BME280;5718;42.138;24.762;2023-07-13T00:29:39;99582.06;;;26.80;100.00
11327;BME280;5718;42.138;24.762;2023-07-13T00:32:07;99579.88;;;26.60;100.00
11327;BME280;5718;42.138;24.762;2023-07-13T00:34:36;99580.97;;;26.70;100.00
11327;BME280;5718;42.138;24.762;2023-07-13T00:37:03;99574.66;;;26.58;100.00
11327;BME280;5718;42.138;24.762;2023-07-13T00:39:32;99576.84;;;26.52;100.00
11327;BME280;5718;42.138;24.762;2023-07-13T00:41:59;99569.00;;;26.63;100.00
11327;BME280;5718;42.138;24.762;2023-07-13T00:44:26;99567.13;;;26.65;100.00
11327;BME280;5718;42.138;24.762;2023-07-13T00:46:53;99570.38;;;26.83;100.00
11327;BME280;5718;42.138;24.762;2023-07-13T00:49:23;99566.91;;;26.68;100.00
11327;BME280;5718;42.138;24.762;2023-07-13T00:51:54;99573.06;;;26.83;100.00
11327;BME280;5718;42.138;24.762;2023-07-13T00:54:24;99575.09;;;26.92;100.00
11327;BME280;5718;42.138;24.762;2023-07-13T00:56:55;99571.22;;;26.83;100.00
11327;BME280;5718;42.138;24.762;2023-07-13T00:59:24;99571.00;;;26.74;100.00
11327;BME280;5718;42.138;24.762;2023-07-13T01:01:51;99570.56;;;26.80;100.00
11327;BME280;5718;42.138;24.762;2023-07-13T01:04:18;99564.44;;;26.92;100.00
11327;BME280;5718;42.138;24.762;2023-07-13T01:06:45;99563.78;;;26.88;100.00
11327;BME280;5718;42.138;24.762;2023-07-13T01:09:14;99565.84;;;26.71;100.00
11327;BME280;5718;42.138;24.762;2023-07-13T01:11:43;99554.78;;;26.77;100.00
11327;BME280;5718;42.138;24.762;2023-07-13T01:14:11;99548.88;;;26.72;100.00
11327;BME280;5718;42.138;24.762;2023-07-13T01:16:39;99553.22;;;26.60;100.00
11327;BME280;5718;42.138;24.762;2023-07-13T01:19:13;99551.13;;;26.65;100.00
11327;BME280;5718;42.138;24.762;2023-07-13T01:21:43;99554.06;;;26.60;100.00
11327;BME280;5718;42.138;24.762;2023-07-13T01:24:10;99557.84;;;26.44;100.00
11327;BME280;5718;42.138;24.762;2023-07-13T01:26:37;99551.94;;;26.24;100.00
11327;BME280;5718;42.138;24.762;2023-07-13T01:29:04;99558.19;;;26.38;100.00
11327;BME280;5718;42.138;24.762;2023-07-13T01:31:30;99558.31;;;26.50;100.00
11327;BME280;5718;42.138;24.762;2023-07-13T01:33:57;99563.38;;;26.41;100.00
11327;BME280;5718;42.138;24.762;2023-07-13T01:36:24;99563.56;;;26.09;100.00
11327;BME280;5718;42.138;24.762;2023-07-13T01:38:52;99553.38;;;26.16;100.00
11327;BME280;5718;42.138;24.762;2023-07-13T01:41:19;99559.00;;;26.11;100.00
11327;BME280;5718;42.138;24.762;2023-07-13T01:43:45;99555.84;;;26.19;100.00
11327;BME280;5718;42.138;24.762;2023-07-13T01:46:12;99554.88;;;26.20;100.00
11327;BME280;5718;42.138;24.762;2023-07-13T01:48:39;99560.91;;;26.09;100.00
11327;BME280;5718;42.138;24.762;2023-07-13T01:51:06;99563.19;;;26.01;100.00
11327;BME280;5718;42.138;24.762;2023-07-13T01:53:32;99557.66;;;25.90;100.00
11327;BME280;5718;42.138;24.762;2023-07-13T01:56:00;99561.28;;;25.89;100.00
11327;BME280;5718;42.138;24.762;2023-07-13T01:58:27;99563.09;;;25.88;100.00
11327;BME280;5718;42.138;24.762;2023-07-13T02:00:54;99567.56;;;26.02;100.00
11327;BME280;5718;42.138;24.762;2023-07-13T02:03:21;99577.81;;;26.22;100.00
11327;BME280;5718;42.138;24.762;2023-07-13T02:05:47;99566.59;;;26.17;100.00
11327;BME280;5718;42.138;24.762;2023-07-13T02:08:14;99566.41;;;26.06;100.00
11327;BME280;5718;42.138;24.762;2023-07-13T02:10:41;99578.69;;;26.09;100.00
11327;BME280;5718;42.138;24.762;2023-07-13T02:13:09;99575.63;;;25.86;100.00
11327;BME280;5718;42.138;24.762;2023-07-13T02:15:38;99578.81;;;25.63;100.00
11327;BME280;5718;42.138;24.762;2023-07-13T02:18:05;99581.09;;;25.69;100.00
11327;BME280;5718;42.138;24.762;2023-07-13T02:20:32;99576.09;;;25.79;100.00
11327;BME280;5718;42.138;24.762;2023-07-13T02:22:59;99580.81;;;25.59;100.00
11327;BME280;5718;42.138;24.762;2023-07-13T02:25:25;99588.50;;;25.64;100.00
11327;BME280;5718;42.138;24.762;2023-07-13T02:27:52;99588.78;;;25.59;100.00
11327;BME280;5718;42.138;24.762;2023-07-13T02:30:21;99589.16;;;25.53;100.00
11327;BME280;5718;42.138;24.762;2023-07-13T02:32:50;99595.34;;;25.54;100.00
11327;BME280;5718;42.138;24.762;2023-07-13T02:35:16;99596.22;;;25.68;100.00
11327;BME280;5718;42.138;24.762;2023-07-13T02:37:43;99601.97;;;25.76;100.00
11327;BME280;5718;42.138;24.762;2023-07-13T02:40:10;99592.59;;;25.69;100.00
11327;BME280;5718;42.138;24.762;2023-07-13T02:42:37;99597.09;;;25.39;100.00
11327;BME280;5718;42.138;24.762;2023-07-13T02:45:05;99598.09;;;25.52;100.00
11327;BME280;5718;42.138;24.762;2023-07-13T02:47:33;99600.16;;;25.47;100.00
11327;BME280;5718;42.138;24.762;2023-07-13T02:50:00;99593.03;;;25.47;100.00
11327;BME280;5718;42.138;24.762;2023-07-13T02:52:27;99588.69;;;25.16;100.00
11327;BME280;5718;42.138;24.762;2023-07-13T02:54:54;99593.19;;;25.30;100.00
11327;BME280;5718;42.138;24.762;2023-07-13T02:57:20;99602.16;;;25.43;100.00
11327;BME280;5718;42.138;24.762;2023-07-13T02:59:47;99600.81;;;25.36;100.00
11327;BME280;5718;42.138;24.762;2023-07-13T03:02:15;99609.44;;;25.40;100.00
11327;BME280;5718;42.138;24.762;2023-07-13T03:04:43;99599.09;;;25.35;100.00
11327;BME280;5718;42.138;24.762;2023-07-13T03:07:10;99591.78;;;25.09;100.00
11327;BME280;5718;42.138;24.762;2023-07-13T03:09:37;99593.50;;;24.94;100.00
11327;BME280;5718;42.138;24.762;2023-07-13T03:12:04;99601.03;;;25.02;100.00
11327;BME280;5718;42.138;24.762;2023-07-13T03:14:31;99604.28;;;25.07;100.00
11327;BME280;5718;42.138;24.762;2023-07-13T03:16:57;99599.91;;;25.21;100.00
11327;BME280;5718;42.138;24.762;2023-07-13T03:19:24;99596.78;;;25.29;100.00
11327;BME280;5718;42.138;24.762;2023-07-13T03:21:52;99594.69;;;25.20;100.00
11327;BME280;5718;42.138;24.762;2023-07-13T03:24:19;99597.47;;;25.03;100.00
11327;BME280;5718;42.138;24.762;2023-07-13T03:26:46;99590.34;;;25.33;100.00
11327;BME280;5718;42.138;24.762;2023-07-13T03:29:13;99587.56;;;25.20;100.00
11327;BME280;5718;42.138;24.762;2023-07-13T03:31:39;99579.38;;;25.24;100.00
11327;BME280;5718;42.138;24.762;2023-07-13T03:34:06;99585.00;;;25.49;100.00
11327;BME280;5718;42.138;24.762;2023-07-13T03:36:33;99583.06;;;25.51;100.00
11327;BME280;5718;42.138;24.762;2023-07-13T03:39:03;99590.38;;;25.47;100.00
11327;BME280;5718;42.138;24.762;2023-07-13T03:41:31;99584.38;;;25.74;100.00
11327;BME280;5718;42.138;24.762;2023-07-13T03:43:58;99592.66;;;25.54;100.00
11327;BME280;5718;42.138;24.762;2023-07-13T03:46:25;99586.75;;;25.34;100.00
11327;BME280;5718;42.138;24.762;2023-07-13T03:48:51;99586.75;;;25.48;100.00
11327;BME280;5718;42.138;24.762;2023-07-13T03:51:19;99586.69;;;25.64;100.00
11327;BME280;5718;42.138;24.762;2023-07-13T03:53:46;99595.44;;;25.52;100.00
11327;BME280;5718;42.138;24.762;2023-07-13T03:56:15;99586.41;;;25.40;100.00
11327;BME280;5718;42.138;24.762;2023-07-13T03:58:44;99591.53;;;25.43;100.00
11327;BME280;5718;42.138;24.762;2023-07-13T04:01:13;99599.34;;;25.61;100.00
11327;BME280;5718;42.138;24.762;2023-07-13T04:03:40;99606.28;;;25.63;100.00
11327;BME280;5718;42.138;24.762;2023-07-13T04:06:08;99604.31;;;25.67;100.00
11327;BME280;5718;42.138;24.762;2023-07-13T04:08:40;99601.50;;;25.54;100.00
11327;BME280;5718;42.138;24.762;2023-07-13T04:11:07;99601.66;;;25.37;100.00
11327;BME280;5718;42.138;24.762;2023-07-13T04:13:35;99601.47;;;25.40;100.00
11327;BME280;5718;42.138;24.762;2023-07-13T04:16:02;99601.09;;;25.46;100.00
11327;BME280;5718;42.138;24.762;2023-07-13T04:18:29;99613.16;;;25.37;100.00
11327;BME280;5718;42.138;24.762;2023-07-13T04:20:56;99612.81;;;25.73;100.00
11327;BME280;5718;42.138;24.762;2023-07-13T04:23:22;99614.25;;;25.63;100.00
11327;BME280;5718;42.138;24.762;2023-07-13T04:25:52;99618.50;;;25.52;100.00
11327;BME280;5718;42.138;24.762;2023-07-13T04:28:20;99612.53;;;25.62;100.00
11327;BME280;5718;42.138;24.762;2023-07-13T04:30:49;99623.06;;;25.80;100.00
11327;BME280;5718;42.138;24.762;2023-07-13T04:33:16;99620.22;;;25.83;100.00
11327;BME280;5718;42.138;24.762;2023-07-13T04:35:43;99620.22;;;25.83;100.00
11327;BME280;5718;42.138;24.762;2023-07-13T04:38:12;99623.44;;;25.88;100.00
11327;BME280;5718;42.138;24.762;2023-07-13T04:40:40;99625.53;;;25.97;100.00
11327;BME280;5718;42.138;24.762;2023-07-13T04:43:06;99622.88;;;25.97;100.00
11327;BME280;5718;42.138;24.762;2023-07-13T04:45:34;99624.59;;;25.98;100.00
11327;BME280;5718;42.138;24.762;2023-07-13T04:48:03;99621.47;;;26.20;100.00
11327;BME280;5718;42.138;24.762;2023-07-13T04:50:30;99623.06;;;26.22;100.00
11327;BME280;5718;42.138;24.762;2023-07-13T04:52:57;99631.06;;;26.65;100.00
11327;BME280;5718;42.138;24.762;2023-07-13T04:55:24;99630.00;;;26.68;100.00
11327;BME280;5718;42.138;24.762;2023-07-13T04:57:52;99624.00;;;26.64;100.00
11327;BME280;5718;42.138;24.762;2023-07-13T05:00:19;99628.56;;;26.76;100.00
11327;BME280;5718;42.138;24.762;2023-07-13T05:02:45;99635.41;;;26.80;100.00
11327;BME280;5718;42.138;24.762;2023-07-13T05:05:14;99631.00;;;26.94;100.00
11327;BME280;5718;42.138;24.762;2023-07-13T05:07:40;99639.63;;;27.11;100.00
11327;BME280;5718;42.138;24.762;2023-07-13T05:10:08;99637.69;;;27.13;100.00
11327;BME280;5718;42.138;24.762;2023-07-13T05:12:35;99636.03;;;26.57;100.00
11327;BME280;5718;42.138;24.762;2023-07-13T05:15:03;99641.91;;;26.62;100.00
11327;BME280;5718;42.138;24.762;2023-07-13T05:17:29;99635.34;;;26.68;100.00
11327;BME280;5718;42.138;24.762;2023-07-13T05:19:56;99640.28;;;26.74;100.00
11327;BME280;5718;42.138;24.762;2023-07-13T05:22:24;99637.41;;;26.77;100.00
11327;BME280;5718;42.138;24.762;2023-07-13T05:24:51;99642.53;;;26.80;100.00
11327;BME280;5718;42.138;24.762;2023-07-13T05:27:18;99645.66;;;26.86;100.00
11327;BME280;5718;42.138;24.762;2023-07-13T05:29:44;99638.03;;;26.95;100.00
11327;BME280;5718;42.138;24.762;2023-07-13T05:32:11;99640.53;;;26.83;100.00
11327;BME280;5718;42.138;24.762;2023-07-13T05:34:38;99638.63;;;26.85;100.00
11327;BME280;5718;42.138;24.762;2023-07-13T05:37:05;99637.53;;;27.29;100.00
11327;BME280;5718;42.138;24.762;2023-07-13T05:39:33;99643.38;;;27.61;100.00
11327;BME280;5718;42.138;24.762;2023-07-13T05:42:00;99639.91;;;27.86;100.00
11327;BME280;5718;42.138;24.762;2023-07-13T05:44:26;99645.91;;;27.90;100.00
11327;BME280;5718;42.138;24.762;2023-07-13T05:46:53;99643.44;;;27.87;100.00
11327;BME280;5718;42.138;24.762;2023-07-13T05:49:22;99637.06;;;27.62;100.00
11327;BME280;5718;42.138;24.762;2023-07-13T05:51:48;99641.53;;;28.02;100.00
11327;BME280;5718;42.138;24.762;2023-07-13T05:54:15;99632.56;;;28.15;98.58
11327;BME280;5718;42.138;24.762;2023-07-13T05:56:43;99628.91;;;28.29;96.42
11327;BME280;5718;42.138;24.762;2023-07-13T05:59:10;99643.31;;;28.52;96.67
11327;BME280;5718;42.138;24.762;2023-07-13T06:01:37;99637.47;;;28.34;97.96
11327;BME280;5718;42.138;24.762;2023-07-13T06:04:04;99633.00;;;28.35;98.38
11327;BME280;5718;42.138;24.762;2023-07-13T06:06:30;99634.63;;;28.74;95.10
11327;BME280;5718;42.138;24.762;2023-07-13T06:08:57;99645.75;;;28.68;96.33
11327;BME280;5718;42.138;24.762;2023-07-13T06:11:25;99639.97;;;28.74;94.51
11327;BME280;5718;42.138;24.762;2023-07-13T06:13:56;99643.66;;;28.84;95.03
11327;BME280;5718;42.138;24.762;2023-07-13T06:16:23;99650.25;;;28.67;96.18
11327;BME280;5718;42.138;24.762;2023-07-13T06:18:50;99646.09;;;28.87;94.37
11327;BME280;5718;42.138;24.762;2023-07-13T06:21:18;99655.03;;;29.12;91.94
11327;BME280;5718;42.138;24.762;2023-07-13T06:23:46;99653.47;;;29.68;86.59
11327;BME280;5718;42.138;24.762;2023-07-13T06:26:14;99653.56;;;29.55;86.17
11327;BME280;5718;42.138;24.762;2023-07-13T06:28:41;99643.75;;;29.78;79.28
11327;BME280;5718;42.138;24.762;2023-07-13T06:31:11;99648.56;;;29.97;78.85
11327;BME280;5718;42.138;24.762;2023-07-13T06:33:38;99646.34;;;30.02;79.71
11327;BME280;5718;42.138;24.762;2023-07-13T06:36:06;99643.31;;;29.96;78.56
11327;BME280;5718;42.138;24.762;2023-07-13T06:38:33;99640.56;;;30.42;73.68
11327;BME280;5718;42.138;24.762;2023-07-13T06:41:00;99643.75;;;30.13;72.32
11327;BME280;5718;42.138;24.762;2023-07-13T06:43:26;99632.63;;;30.52;70.45
11327;BME280;5718;42.138;24.762;2023-07-13T06:45:55;99633.66;;;30.94;67.46
11327;BME280;5718;42.138;24.762;2023-07-13T06:48:23;99631.53;;;30.43;72.87
11327;BME280;5718;42.138;24.762;2023-07-13T06:50:50;99626.19;;;30.65;69.95
11327;BME280;5718;42.138;24.762;2023-07-13T06:53:19;99634.28;;;31.41;68.32
11327;BME280;5718;42.138;24.762;2023-07-13T06:55:46;99623.59;;;31.29;64.56
11327;BME280;5718;42.138;24.762;2023-07-13T06:58:18;99638.34;;;30.36;68.86
11327;BME280;5718;42.138;24.762;2023-07-13T07:00:46;99630.53;;;29.99;71.16
11327;BME280;5718;42.138;24.762;2023-07-13T07:03:13;99631.56;;;30.32;70.30
11327;BME280;5718;42.138;24.762;2023-07-13T07:05:41;99632.28;;;30.79;66.72
11327;BME280;5718;42.138;24.762;2023-07-13T07:08:08;99635.31;;;31.17;63.56
11327;BME280;5718;42.138;24.762;2023-07-13T07:10:35;99637.72;;;31.84;60.13
11327;BME280;5718;42.138;24.762;2023-07-13T07:13:02;99640.72;;;32.42;57.43
11327;BME280;5718;42.138;24.762;2023-07-13T07:15:29;99633.38;;;31.93;57.39
11327;BME280;5718;42.138;24.762;2023-07-13T07:17:56;99634.25;;;32.24;57.99
11327;BME280;5718;42.138;24.762;2023-07-13T07:20:23;99639.66;;;30.97;64.65
11327;BME280;5718;42.138;24.762;2023-07-13T07:22:51;99632.28;;;31.96;62.25
11327;BME280;5718;42.138;24.762;2023-07-13T07:25:18;99638.31;;;32.80;58.47
11327;BME280;5718;42.138;24.762;2023-07-13T07:27:45;99630.13;;;33.01;57.74
11327;BME280;5718;42.138;24.762;2023-07-13T07:30:12;99633.16;;;32.67;59.03
11327;BME280;5718;42.138;24.762;2023-07-13T07:32:40;99635.25;;;32.94;57.00
11327;BME280;5718;42.138;24.762;2023-07-13T07:35:08;99631.88;;;33.21;54.89
11327;BME280;5718;42.138;24.762;2023-07-13T07:37:34;99631.91;;;33.40;53.67
11327;BME280;5718;42.138;24.762;2023-07-13T07:40:03;99632.03;;;33.48;53.92
11327;BME280;5718;42.138;24.762;2023-07-13T07:42:30;99625.22;;;33.54;54.32
11327;BME280;5718;42.138;24.762;2023-07-13T07:44:57;99623.66;;;33.42;53.99
11327;BME280;5718;42.138;24.762;2023-07-13T07:47:23;99623.78;;;33.79;53.87
11327;BME280;5718;42.138;24.762;2023-07-13T07:49:50;99629.88;;;33.91;51.97
11327;BME280;5718;42.138;24.762;2023-07-13T07:52:17;99625.06;;;33.94;51.11
11327;BME280;5718;42.138;24.762;2023-07-13T07:54:44;99624.03;;;34.32;49.79
11327;BME280;5718;42.138;24.762;2023-07-13T07:57:12;99625.19;;;34.30;49.77
11327;BME280;5718;42.138;24.762;2023-07-13T07:59:39;99631.56;;;34.01;50.04
11327;BME280;5718;42.138;24.762;2023-07-13T08:02:08;99628.06;;;33.52;50.61
11327;BME280;5718;42.138;24.762;2023-07-13T08:04:35;99615.72;;;33.40;51.13
11327;BME280;5718;42.138;24.762;2023-07-13T08:07:02;99618.53;;;33.58;50.46
11327;BME280;5718;42.138;24.762;2023-07-13T08:09:29;99615.00;;;33.58;49.63
11327;BME280;5718;42.138;24.762;2023-07-13T08:11:56;99612.47;;;33.27;50.13
11327;BME280;5718;42.138;24.762;2023-07-13T08:14:24;99604.13;;;33.40;50.95
11327;BME280;5718;42.138;24.762;2023-07-13T08:16:50;99599.63;;;32.71;52.69
11327;BME280;5718;42.138;24.762;2023-07-13T08:19:17;99605.25;;;33.28;51.55
11327;BME280;5718;42.138;24.762;2023-07-13T08:21:44;99605.38;;;34.21;48.37
11327;BME280;5718;42.138;24.762;2023-07-13T08:24:13;99605.97;;;34.52;46.90
11327;BME280;5718;42.138;24.762;2023-07-13T08:26:40;99604.59;;;34.66;48.14
11327;BME280;5718;42.138;24.762;2023-07-13T08:29:06;99596.06;;;34.33;47.82
11327;BME280;5718;42.138;24.762;2023-07-13T08:31:35;99599.44;;;34.08;48.42
11327;BME280;5718;42.138;24.762;2023-07-13T08:34:01;99599.19;;;34.94;46.85
11327;BME280;5718;42.138;24.762;2023-07-13T08:36:28;99611.00;;;35.10;45.15
11327;BME280;5718;42.138;24.762;2023-07-13T08:38:55;99612.41;;;35.50;45.06
11327;BME280;5718;42.138;24.762;2023-07-13T08:41:23;99595.56;;;36.08;43.62
11327;BME280;5718;42.138;24.762;2023-07-13T08:43:53;99601.06;;;36.33;42.55
11327;BME280;5718;42.138;24.762;2023-07-13T08:46:25;99602.91;;;35.10;43.34
11327;BME280;5718;42.138;24.762;2023-07-13T08:48:56;99583.91;;;35.02;42.76
11327;BME280;5718;42.138;24.762;2023-07-13T08:51:30;99592.69;;;35.40;42.48
11327;BME280;5718;42.138;24.762;2023-07-13T08:54:01;99580.44;;;35.71;42.71
11327;BME280;5718;42.138;24.762;2023-07-13T08:56:30;99577.88;;;36.64;40.83
11327;BME280;5718;42.138;24.762;2023-07-13T08:59:00;99575.44;;;36.95;40.22
11327;BME280;5718;42.138;24.762;2023-07-13T09:01:31;99580.88;;;37.20;39.77
11327;BME280;5718;42.138;24.762;2023-07-13T09:04:05;99582.41;;;36.55;39.73
11327;BME280;5718;42.138;24.762;2023-07-13T09:06:42;99583.25;;;36.48;39.20
11327;BME280;5718;42.138;24.762;2023-07-13T09:09:20;99579.00;;;36.45;39.74
11327;BME280;5718;42.138;24.762;2023-07-13T09:11:52;99571.16;;;35.74;40.74
11327;BME280;5718;42.138;24.762;2023-07-13T09:14:37;99569.34;;;36.85;39.26
11327;BME280;5718;42.138;24.762;2023-07-13T09:17:12;99575.63;;;37.18;37.50
11327;BME280;5718;42.138;24.762;2023-07-13T09:19:43;99568.38;;;37.43;37.42
11327;BME280;5718;42.138;24.762;2023-07-13T09:22:15;99569.16;;;37.76;37.53
11327;BME280;5718;42.138;24.762;2023-07-13T09:24:52;99558.41;;;36.52;38.91
11327;BME280;5718;42.138;24.762;2023-07-13T09:27:23;99562.25;;;36.92;38.41
11327;BME280;5718;42.138;24.762;2023-07-13T09:29:56;99560.19;;;37.67;37.49
11327;BME280;5718;42.138;24.762;2023-07-13T09:32:27;99546.59;;;36.78;38.25
11327;BME280;5718;42.138;24.762;2023-07-13T09:34:56;99544.91;;;35.66;39.83
11327;BME280;5718;42.138;24.762;2023-07-13T09:37:28;99529.41;;;36.37;38.69
11327;BME280;5718;42.138;24.762;2023-07-13T09:39:56;99541.59;;;37.40;37.60
11327;BME280;5718;42.138;24.762;2023-07-13T09:42:25;99527.63;;;36.62;38.18
11327;BME280;5718;42.138;24.762;2023-07-13T09:44:55;99523.63;;;37.06;37.17
11327;BME280;5718;42.138;24.762;2023-07-13T09:47:24;99526.69;;;37.20;37.40
11327;BME280;5718;42.138;24.762;2023-07-13T09:49:57;99515.75;;;37.93;36.13
11327;BME280;5718;42.138;24.762;2023-07-13T09:52:25;99514.56;;;38.35;35.25
11327;BME280;5718;42.138;24.762;2023-07-13T09:54:54;99513.28;;;38.06;35.72
11327;BME280;5718;42.138;24.762;2023-07-13T09:57:25;99510.44;;;38.08;34.84
11327;BME280;5718;42.138;24.762;2023-07-13T09:59:54;99509.00;;;38.28;35.51
11327;BME280;5718;42.138;24.762;2023-07-13T10:02:29;99506.50;;;38.49;34.80
11327;BME280;5718;42.138;24.762;2023-07-13T10:05:01;99503.28;;;39.00;34.84
11327;BME280;5718;42.138;24.762;2023-07-13T10:07:30;99492.88;;;38.81;35.95
11327;BME280;5718;42.138;24.762;2023-07-13T10:09:58;99489.94;;;38.90;36.00
11327;BME280;5718;42.138;24.762;2023-07-13T10:12:28;99485.03;;;38.86;35.73
11327;BME280;5718;42.138;24.762;2023-07-13T10:14:56;99487.81;;;39.00;35.41
11327;BME280;5718;42.138;24.762;2023-07-13T10:17:29;99477.31;;;39.12;35.26
11327;BME280;5718;42.138;24.762;2023-07-13T10:20:01;99478.81;;;39.00;35.12
11327;BME280;5718;42.138;24.762;2023-07-13T10:22:37;99481.00;;;38.19;35.69
11327;BME280;5718;42.138;24.762;2023-07-13T10:25:15;99483.56;;;38.52;35.23
11327;BME280;5718;42.138;24.762;2023-07-13T10:27:43;99486.47;;;38.50;34.86
11327;BME280;5718;42.138;24.762;2023-07-13T10:30:15;99492.03;;;38.80;34.09
11327;BME280;5718;42.138;24.762;2023-07-13T10:32:45;99481.66;;;39.07;34.36
11327;BME280;5718;42.138;24.762;2023-07-13T10:35:16;99478.88;;;39.15;33.90
11327;BME280;5718;42.138;24.762;2023-07-13T10:37:48;99472.91;;;39.34;33.41
11327;BME280;5718;42.138;24.762;2023-07-13T10:40:19;99473.03;;;39.85;28.82
11327;BME280;5718;42.138;24.762;2023-07-13T10:42:51;99465.34;;;39.59;29.46
11327;BME280;5718;42.138;24.762;2023-07-13T10:45:21;99466.94;;;39.83;27.76
11327;BME280;5718;42.138;24.762;2023-07-13T10:47:50;99465.69;;;40.00;28.79
11327;BME280;5718;42.138;24.762;2023-07-13T10:50:22;99462.13;;;40.14;28.55
11327;BME280;5718;42.138;24.762;2023-07-13T10:52:52;99459.31;;;40.08;29.00
11327;BME280;5718;42.138;24.762;2023-07-13T10:55:34;99458.00;;;40.40;27.96
11327;BME280;5718;42.138;24.762;2023-07-13T10:58:08;99456.38;;;40.24;28.37
11327;BME280;5718;42.138;24.762;2023-07-13T11:00:44;99450.88;;;40.39;27.69
11327;BME280;5718;42.138;24.762;2023-07-13T11:03:14;99449.88;;;40.61;27.85
11327;BME280;5718;42.138;24.762;2023-07-13T11:05:43;99444.59;;;40.38;27.91
11327;BME280;5718;42.138;24.762;2023-07-13T11:08:16;99433.66;;;39.66;27.75
11327;BME280;5718;42.138;24.762;2023-07-13T11:10:51;99436.44;;;40.02;27.99
11327;BME280;5718;42.138;24.762;2023-07-13T11:13:55;99441.53;;;40.27;27.51
11327;BME280;5718;42.138;24.762;2023-07-13T11:16:41;99439.06;;;40.32;27.04
11327;BME280;5718;42.138;24.762;2023-07-13T11:19:25;99433.34;;;40.05;27.64
11327;BME280;5718;42.138;24.762;2023-07-13T11:22:15;99441.47;;;40.41;27.50
11327;BME280;5718;42.138;24.762;2023-07-13T11:25:20;99430.47;;;40.13;27.20
11327;BME280;5718;42.138;24.762;2023-07-13T11:27:51;99427.16;;;40.54;26.77
11327;BME280;5718;42.138;24.762;2023-07-13T11:30:36;99428.78;;;40.70;26.72
11327;BME280;5718;42.138;24.762;2023-07-13T11:33:13;99424.09;;;40.85;26.84
11327;BME280;5718;42.138;24.762;2023-07-13T11:35:58;99420.91;;;41.03;26.51
11327;BME280;5718;42.138;24.762;2023-07-13T11:38:32;99422.75;;;40.75;26.75
11327;BME280;5718;42.138;24.762;2023-07-13T11:41:03;99429.03;;;41.24;25.76
11327;BME280;5718;42.138;24.762;2023-07-13T11:43:30;99427.66;;;41.07;25.47
11327;BME280;5718;42.138;24.762;2023-07-13T11:46:11;99423.94;;;40.44;26.06
11327;BME280;5718;42.138;24.762;2023-07-13T11:48:38;99421.44;;;40.70;26.08
11327;BME280;5718;42.138;24.762;2023-07-13T11:51:05;99409.63;;;40.42;27.14
11327;BME280;5718;42.138;24.762;2023-07-13T11:53:37;99407.09;;;40.55;26.43
11327;BME280;5718;42.138;24.762;2023-07-13T11:56:05;99418.69;;;40.28;26.54
11327;BME280;5718;42.138;24.762;2023-07-13T11:58:32;99408.72;;;40.35;26.80
11327;BME280;5718;42.138;24.762;2023-07-13T12:01:01;99405.28;;;40.69;26.23
11327;BME280;5718;42.138;24.762;2023-07-13T12:03:30;99406.22;;;41.04;26.08
11327;BME280;5718;42.138;24.762;2023-07-13T12:06:00;99395.59;;;41.44;25.48
11327;BME280;5718;42.138;24.762;2023-07-13T12:08:28;99386.66;;;41.22;25.54
11327;BME280;5718;42.138;24.762;2023-07-13T12:11:04;99382.66;;;41.24;25.47
11327;BME280;5718;42.138;24.762;2023-07-13T12:13:36;99376.06;;;41.12;25.82
11327;BME280;5718;42.138;24.762;2023-07-13T12:16:12;99375.84;;;40.36;25.97
11327;BME280;5718;42.138;24.762;2023-07-13T12:18:42;99371.88;;;40.82;25.70
11327;BME280;5718;42.138;24.762;2023-07-13T12:21:13;99364.47;;;40.76;27.68
11327;BME280;5718;42.138;24.762;2023-07-13T12:23:43;99352.72;;;39.90;30.14
11327;BME280;5718;42.138;24.762;2023-07-13T12:26:12;99350.88;;;40.11;30.34
11327;BME280;5718;42.138;24.762;2023-07-13T12:28:45;99354.66;;;39.96;30.33
11327;BME280;5718;42.138;24.762;2023-07-13T12:31:30;99338.78;;;39.78;30.28
11327;BME280;5718;42.138;24.762;2023-07-13T12:33:59;99350.66;;;40.06;29.48
11327;BME280;5718;42.138;24.762;2023-07-13T12:36:30;99347.56;;;40.37;29.70
11327;BME280;5718;42.138;24.762;2023-07-13T12:39:02;99347.47;;;39.88;30.71
11327;BME280;5718;42.138;24.762;2023-07-13T12:41:32;99334.47;;;40.05;29.88
11327;BME280;5718;42.138;24.762;2023-07-13T12:44:00;99334.63;;;40.18;29.30
11327;BME280;5718;42.138;24.762;2023-07-13T12:46:27;99333.91;;;40.31;28.69
11327;BME280;5718;42.138;24.762;2023-07-13T12:48:56;99330.38;;;40.37;29.02
11327;BME280;5718;42.138;24.762;2023-07-13T12:51:25;99321.66;;;40.20;28.51
11327;BME280;5718;42.138;24.762;2023-07-13T12:53:57;99320.44;;;40.23;28.63
11327;BME280;5718;42.138;24.762;2023-07-13T12:56:27;99317.38;;;40.32;28.43
11327;BME280;5718;42.138;24.762;2023-07-13T12:59:01;99324.56;;;40.19;28.78
11327;BME280;5718;42.138;24.762;2023-07-13T13:01:31;99321.56;;;39.92;29.12
11327;BME280;5718;42.138;24.762;2023-07-13T13:04:01;99319.69;;;39.93;28.95